Kezdőlap
METAR-TAF:

METAR-TAF

Repülőterek :

Campbeltown, Skócia

földrajzi szélesség: 55-26-14N, földrajzi hosszúság: 005-41-11W, magasság: 13 m

Jelenlegi meteorológiai megfigyelések

A jelentés 23 órával és 0 perccel ezelõtt készült, 16:20 UTC
Nyugat-északnyugati szél 8 kt
Hőmérséklet 17°C
Páratartalom 72%
Légköri nyomás 1019 hPa
Látótávolság 10 km, vagy több
Kevés felhő 4000 lábon

METAR: EGEC 121620Z 30008KT 9999 FEW040 17/12 Q1019

Idő: 16:20 (15:20 UTC)

Előrejelzés

A jelentés 25 órával és 22 perccel ezelõtt készült, 13:58 UTC
Az előrejelzés 12-én 15 óra UTC és 12-én 17 óra UTC között érvényes
Északnyugati szél 9 kt
Látótávolság 10 km, vagy több
Kevés felhő 3500 lábon

TAF: EGEC 121358Z 1215/1217 32009KT 9999 FEW035

Meteorológiai megfigyelések és előrejelzések több, mint 4000 repülőtéren (METAR és TAF jelentéseket).

A térképen piros és sárga pontok jelzik az elérhető meteorológiai állomásokat.

Mozgassa az egeret a pont fölött, hogy megjelenjen az állomás neve.

Azután kattintson az időjárási megfigyelések és előrejelzések megtekintéséhez.

A térkép megváltoztatása: kattintson a fekete keresztel jelölt zöld gombra ráközelítéshez, a vonallal jelölt zöld gombra távolításhoz, vagy a zöld nyilakra a szomszédos térképek eléréséhez.


METAR-TAF: